Portada
METAR-TAF:

METAR-TAF

Aeroports :

Savannakhet, Laos

latitud: 16-33-24N, longitud: 104-45-34E, altitud: 155 m

Observació

L'informe es va fer fa 11 hores i 44 minuts, a les 12:00 UTC
Vent 6 kt del Oest
Temperatura 25°C
Humitat 65%
Pressió 1014 hPa
Visibilitat: 3000 m
Núvols disperses a una alçada de 4000 ft
boirina

METAR: VLSK 191200Z 27006KT 3000 BR SCT040 25/18 Q1014 NOSIG

Hora: 06:44 (23:44 UTC)

Pronòstic

L'informe es va fer fa 12 hores i 44 minuts, a les 11:00 UTC
Pronòstic vàlid del 19 a les 12 UTC al 20 a les 12 UTC
Vent 4 kt del Est/Nord-Est
Visibilitat: 4000 m
Escasses núvols a una alçada de 2000 ft
Escasses núvols a una alçada de 5000 ft
Núvols disperses a una alçada de 10000 ft
boirina

TAF: VLSK 191100Z 1912/2012 06004KT 4000 BR FEW020 FEW050 SCT100

Observacions i pronòstics meteorològics de més de 4000 aeroports (METAR i TAF).

Les estacions disponibles són els punts grocs i vermells al mapa.

Posi el ratolí al punt desitjat per veure el nom de l'estació.

Feu clic per veure les observacions i els pronòstics meteorològics.

Per canviar el mapa: feu clic els botons verds amb una creu de color negre per apropar; al botó verd amb un guió per allunyar la imatge; o en les fletxes verdes per a mapes adjacents.


METAR-TAF: